Terminal Aerodrome Forecast
Issued by NWS Wilmington, OH

Current Version | Previous Version | Graphics & Text | Print | Product List | Glossary On
Versions: 1 2 3 4 5 6 7 8 9 10 11 12 13 14 15 16 17 18 19 20 21 22 23 24 25 26 27 28 29 30 31 32 33 34 35
000
FTUS41 KILN 281251 AAA
TAFCVG
TAF AMD
KCVG 281251Z 2813/2918 20010KT P6SM OVC008
      TEMPO 2813/2814 BKN012
     FM281400 18006KT P6SM BKN035
     FM282100 23010KT P6SM VCTS BKN040CB
     FM290200 25008KT P6SM BKN100
     FM290700 27006KT P6SM SKC
     FM291500 26012KT P6SM SCT250=

USA.gov is the U.S. government's official web portal to all federal, state and local government web resources and services.